sensor_id;sensor_type;location;lat;lon;timestamp;temperature;humidity
13721;DHT22;6932;51.438;5.470;2023-08-07T00:00:27;17.50;99.90
13721;DHT22;6932;51.438;5.470;2023-08-07T00:02:53;17.50;99.90
13721;DHT22;6932;51.438;5.470;2023-08-07T00:05:19;17.50;99.90
13721;DHT22;6932;51.438;5.470;2023-08-07T00:07:45;17.50;99.90
13721;DHT22;6932;51.438;5.470;2023-08-07T00:10:11;17.50;99.90
13721;DHT22;6932;51.438;5.470;2023-08-07T00:12:36;17.50;99.90
13721;DHT22;6932;51.438;5.470;2023-08-07T00:15:03;17.50;99.90
13721;DHT22;6932;51.438;5.470;2023-08-07T00:17:29;17.50;99.90
13721;DHT22;6932;51.438;5.470;2023-08-07T00:19:55;17.50;99.90
13721;DHT22;6932;51.438;5.470;2023-08-07T00:22:20;17.50;99.90
13721;DHT22;6932;51.438;5.470;2023-08-07T00:24:46;17.50;99.90
13721;DHT22;6932;51.438;5.470;2023-08-07T00:27:12;17.60;99.90
13721;DHT22;6932;51.438;5.470;2023-08-07T00:29:38;17.50;99.90
13721;DHT22;6932;51.438;5.470;2023-08-07T00:32:04;17.60;99.90
13721;DHT22;6932;51.438;5.470;2023-08-07T00:34:30;17.60;99.90
13721;DHT22;6932;51.438;5.470;2023-08-07T00:36:56;17.60;99.90
13721;DHT22;6932;51.438;5.470;2023-08-07T00:39:22;17.60;99.90
13721;DHT22;6932;51.438;5.470;2023-08-07T00:41:49;17.60;99.90
13721;DHT22;6932;51.438;5.470;2023-08-07T00:44:14;17.60;99.90
13721;DHT22;6932;51.438;5.470;2023-08-07T00:46:41;17.70;99.90
13721;DHT22;6932;51.438;5.470;2023-08-07T00:49:09;17.70;99.90
13721;DHT22;6932;51.438;5.470;2023-08-07T00:51:38;17.70;99.90
13721;DHT22;6932;51.438;5.470;2023-08-07T00:54:05;17.70;99.90
13721;DHT22;6932;51.438;5.470;2023-08-07T00:56:35;17.70;99.90
13721;DHT22;6932;51.438;5.470;2023-08-07T00:59:01;17.70;99.90
13721;DHT22;6932;51.438;5.470;2023-08-07T01:01:27;17.60;99.90
13721;DHT22;6932;51.438;5.470;2023-08-07T01:03:53;17.60;99.90
13721;DHT22;6932;51.438;5.470;2023-08-07T01:06:19;17.60;99.90
13721;DHT22;6932;51.438;5.470;2023-08-07T01:08:46;17.50;99.90
13721;DHT22;6932;51.438;5.470;2023-08-07T01:11:36;17.50;99.90
13721;DHT22;6932;51.438;5.470;2023-08-07T01:14:37;17.50;99.90
13721;DHT22;6932;51.438;5.470;2023-08-07T01:17:20;17.50;99.90
13721;DHT22;6932;51.438;5.470;2023-08-07T01:19:50;17.50;99.90
13721;DHT22;6932;51.438;5.470;2023-08-07T01:22:18;17.40;99.90
13721;DHT22;6932;51.438;5.470;2023-08-07T01:24:47;17.40;99.90
13721;DHT22;6932;51.438;5.470;2023-08-07T01:35:40;17.30;99.90
13721;DHT22;6932;51.438;5.470;2023-08-07T01:38:09;17.30;99.90
13721;DHT22;6932;51.438;5.470;2023-08-07T01:40:37;17.30;99.90
13721;DHT22;6932;51.438;5.470;2023-08-07T01:43:05;17.30;99.90
13721;DHT22;6932;51.438;5.470;2023-08-07T01:45:31;17.30;99.90
13721;DHT22;6932;51.438;5.470;2023-08-07T01:47:56;17.30;99.90
13721;DHT22;6932;51.438;5.470;2023-08-07T01:50:23;17.30;99.90
13721;DHT22;6932;51.438;5.470;2023-08-07T01:52:50;17.40;99.90
13721;DHT22;6932;51.438;5.470;2023-08-07T01:55:17;17.40;99.90
13721;DHT22;6932;51.438;5.470;2023-08-07T01:57:44;17.40;99.90
13721;DHT22;6932;51.438;5.470;2023-08-07T02:00:10;17.50;99.90
13721;DHT22;6932;51.438;5.470;2023-08-07T02:02:37;17.50;99.90
13721;DHT22;6932;51.438;5.470;2023-08-07T02:05:03;17.50;99.90
13721;DHT22;6932;51.438;5.470;2023-08-07T02:07:30;17.50;99.90
13721;DHT22;6932;51.438;5.470;2023-08-07T02:09:57;17.50;99.90
13721;DHT22;6932;51.438;5.470;2023-08-07T02:12:23;17.50;99.90
13721;DHT22;6932;51.438;5.470;2023-08-07T02:14:51;17.40;99.90
13721;DHT22;6932;51.438;5.470;2023-08-07T02:17:16;17.40;99.90
13721;DHT22;6932;51.438;5.470;2023-08-07T02:19:42;17.40;99.90
13721;DHT22;6932;51.438;5.470;2023-08-07T02:22:09;17.40;99.90
13721;DHT22;6932;51.438;5.470;2023-08-07T02:24:35;17.40;99.90
13721;DHT22;6932;51.438;5.470;2023-08-07T02:27:00;17.40;99.90
13721;DHT22;6932;51.438;5.470;2023-08-07T02:29:26;17.40;99.90
13721;DHT22;6932;51.438;5.470;2023-08-07T02:31:52;17.30;99.90
13721;DHT22;6932;51.438;5.470;2023-08-07T02:34:18;17.30;99.90
13721;DHT22;6932;51.438;5.470;2023-08-07T02:36:43;17.30;99.90
13721;DHT22;6932;51.438;5.470;2023-08-07T02:39:09;17.30;99.90
13721;DHT22;6932;51.438;5.470;2023-08-07T02:41:35;17.30;99.90
13721;DHT22;6932;51.438;5.470;2023-08-07T02:44:00;17.30;99.90
13721;DHT22;6932;51.438;5.470;2023-08-07T02:46:26;17.30;99.90
13721;DHT22;6932;51.438;5.470;2023-08-07T02:48:52;17.30;99.90
13721;DHT22;6932;51.438;5.470;2023-08-07T02:51:19;17.30;99.90
13721;DHT22;6932;51.438;5.470;2023-08-07T02:53:44;17.30;99.90
13721;DHT22;6932;51.438;5.470;2023-08-07T02:56:10;17.30;99.90
13721;DHT22;6932;51.438;5.470;2023-08-07T02:58:36;17.30;99.90
13721;DHT22;6932;51.438;5.470;2023-08-07T03:01:05;17.30;99.90
13721;DHT22;6932;51.438;5.470;2023-08-07T03:03:34;17.30;99.90
13721;DHT22;6932;51.438;5.470;2023-08-07T03:06:00;17.30;99.90
13721;DHT22;6932;51.438;5.470;2023-08-07T03:08:26;17.30;99.90
13721;DHT22;6932;51.438;5.470;2023-08-07T03:10:57;17.30;99.90
13721;DHT22;6932;51.438;5.470;2023-08-07T03:13:24;17.30;99.90
13721;DHT22;6932;51.438;5.470;2023-08-07T03:15:59;17.30;99.90
13721;DHT22;6932;51.438;5.470;2023-08-07T03:18:28;17.30;99.90
13721;DHT22;6932;51.438;5.470;2023-08-07T03:20:55;17.30;99.90
13721;DHT22;6932;51.438;5.470;2023-08-07T03:23:25;17.30;99.90
13721;DHT22;6932;51.438;5.470;2023-08-07T03:26:04;17.30;99.90
13721;DHT22;6932;51.438;5.470;2023-08-07T03:28:35;17.30;99.90
13721;DHT22;6932;51.438;5.470;2023-08-07T03:31:02;17.30;99.90
13721;DHT22;6932;51.438;5.470;2023-08-07T03:33:29;17.30;99.90
13721;DHT22;6932;51.438;5.470;2023-08-07T03:35:55;17.30;99.90
13721;DHT22;6932;51.438;5.470;2023-08-07T03:38:20;17.30;99.90
13721;DHT22;6932;51.438;5.470;2023-08-07T03:40:46;17.30;99.90
13721;DHT22;6932;51.438;5.470;2023-08-07T03:43:12;17.30;99.90
13721;DHT22;6932;51.438;5.470;2023-08-07T03:45:39;17.30;99.90
13721;DHT22;6932;51.438;5.470;2023-08-07T03:48:05;17.30;99.90
13721;DHT22;6932;51.438;5.470;2023-08-07T03:50:31;17.30;99.90
13721;DHT22;6932;51.438;5.470;2023-08-07T03:53:00;17.30;99.90
13721;DHT22;6932;51.438;5.470;2023-08-07T03:55:26;17.30;99.90
13721;DHT22;6932;51.438;5.470;2023-08-07T03:57:52;17.40;99.90
13721;DHT22;6932;51.438;5.470;2023-08-07T04:00:18;17.40;99.90
13721;DHT22;6932;51.438;5.470;2023-08-07T04:02:44;17.40;99.90
13721;DHT22;6932;51.438;5.470;2023-08-07T04:05:10;17.40;99.90
13721;DHT22;6932;51.438;5.470;2023-08-07T04:07:36;17.40;99.90
13721;DHT22;6932;51.438;5.470;2023-08-07T04:10:02;17.50;99.90
13721;DHT22;6932;51.438;5.470;2023-08-07T04:12:28;17.50;99.90
13721;DHT22;6932;51.438;5.470;2023-08-07T04:14:53;17.50;99.90
13721;DHT22;6932;51.438;5.470;2023-08-07T04:17:19;17.50;99.90
13721;DHT22;6932;51.438;5.470;2023-08-07T04:19:45;17.50;99.90
13721;DHT22;6932;51.438;5.470;2023-08-07T04:22:11;17.60;99.90
13721;DHT22;6932;51.438;5.470;2023-08-07T04:24:36;17.60;99.90
13721;DHT22;6932;51.438;5.470;2023-08-07T04:27:02;17.60;99.90
13721;DHT22;6932;51.438;5.470;2023-08-07T04:29:28;17.60;99.90
13721;DHT22;6932;51.438;5.470;2023-08-07T04:31:54;17.60;99.90
13721;DHT22;6932;51.438;5.470;2023-08-07T04:34:20;17.60;99.90
13721;DHT22;6932;51.438;5.470;2023-08-07T04:36:45;17.60;99.90
13721;DHT22;6932;51.438;5.470;2023-08-07T04:39:11;17.70;99.90
13721;DHT22;6932;51.438;5.470;2023-08-07T04:41:38;17.70;99.90
13721;DHT22;6932;51.438;5.470;2023-08-07T04:44:04;17.70;99.90
13721;DHT22;6932;51.438;5.470;2023-08-07T04:46:30;17.70;99.90
13721;DHT22;6932;51.438;5.470;2023-08-07T04:48:56;17.70;99.90
13721;DHT22;6932;51.438;5.470;2023-08-07T04:51:22;17.70;99.90
13721;DHT22;6932;51.438;5.470;2023-08-07T04:53:48;17.70;99.90
13721;DHT22;6932;51.438;5.470;2023-08-07T04:56:16;17.70;99.90
13721;DHT22;6932;51.438;5.470;2023-08-07T04:58:42;17.70;99.90
13721;DHT22;6932;51.438;5.470;2023-08-07T05:01:08;17.70;99.90
13721;DHT22;6932;51.438;5.470;2023-08-07T05:03:34;17.70;99.90
13721;DHT22;6932;51.438;5.470;2023-08-07T05:06:00;17.70;99.90
13721;DHT22;6932;51.438;5.470;2023-08-07T05:08:27;17.70;99.90
13721;DHT22;6932;51.438;5.470;2023-08-07T05:10:53;17.70;99.90
13721;DHT22;6932;51.438;5.470;2023-08-07T05:13:19;17.70;99.90
13721;DHT22;6932;51.438;5.470;2023-08-07T05:15:47;17.70;99.90
13721;DHT22;6932;51.438;5.470;2023-08-07T05:18:14;17.70;99.90
13721;DHT22;6932;51.438;5.470;2023-08-07T05:20:40;17.70;99.90
13721;DHT22;6932;51.438;5.470;2023-08-07T05:23:06;17.70;99.90
13721;DHT22;6932;51.438;5.470;2023-08-07T05:25:31;17.70;99.90
13721;DHT22;6932;51.438;5.470;2023-08-07T05:27:58;17.70;99.90
13721;DHT22;6932;51.438;5.470;2023-08-07T05:30:23;17.70;99.90
13721;DHT22;6932;51.438;5.470;2023-08-07T05:32:49;17.70;99.90
13721;DHT22;6932;51.438;5.470;2023-08-07T05:35:15;17.70;99.90
13721;DHT22;6932;51.438;5.470;2023-08-07T05:37:40;17.70;99.90
13721;DHT22;6932;51.438;5.470;2023-08-07T05:40:06;17.70;99.90
13721;DHT22;6932;51.438;5.470;2023-08-07T05:42:33;17.70;99.90
13721;DHT22;6932;51.438;5.470;2023-08-07T05:45:00;17.70;99.90
13721;DHT22;6932;51.438;5.470;2023-08-07T05:47:26;17.70;99.90
13721;DHT22;6932;51.438;5.470;2023-08-07T05:49:52;17.70;99.90
13721;DHT22;6932;51.438;5.470;2023-08-07T05:52:18;17.70;99.90
13721;DHT22;6932;51.438;5.470;2023-08-07T05:54:44;17.70;99.90
13721;DHT22;6932;51.438;5.470;2023-08-07T05:57:10;17.70;99.90
13721;DHT22;6932;51.438;5.470;2023-08-07T05:59:36;17.70;99.90
13721;DHT22;6932;51.438;5.470;2023-08-07T06:02:02;17.70;99.90
13721;DHT22;6932;51.438;5.470;2023-08-07T06:04:28;17.70;99.90
13721;DHT22;6932;51.438;5.470;2023-08-07T06:06:54;17.70;99.90
13721;DHT22;6932;51.438;5.470;2023-08-07T06:09:21;17.70;99.90
13721;DHT22;6932;51.438;5.470;2023-08-07T06:11:47;17.70;99.90
13721;DHT22;6932;51.438;5.470;2023-08-07T06:14:14;17.70;99.90
13721;DHT22;6932;51.438;5.470;2023-08-07T06:16:40;17.70;99.90
13721;DHT22;6932;51.438;5.470;2023-08-07T06:19:05;17.80;99.90
13721;DHT22;6932;51.438;5.470;2023-08-07T06:21:31;17.80;99.90
13721;DHT22;6932;51.438;5.470;2023-08-07T06:23:57;17.80;99.90
13721;DHT22;6932;51.438;5.470;2023-08-07T06:26:23;17.80;99.90
13721;DHT22;6932;51.438;5.470;2023-08-07T06:28:48;17.90;99.90
13721;DHT22;6932;51.438;5.470;2023-08-07T06:31:15;17.90;99.90
13721;DHT22;6932;51.438;5.470;2023-08-07T06:33:41;17.90;99.90
13721;DHT22;6932;51.438;5.470;2023-08-07T06:36:07;17.90;99.90
13721;DHT22;6932;51.438;5.470;2023-08-07T06:38:36;17.90;99.90
13721;DHT22;6932;51.438;5.470;2023-08-07T06:41:02;18.00;99.90
13721;DHT22;6932;51.438;5.470;2023-08-07T06:43:28;18.00;99.90
13721;DHT22;6932;51.438;5.470;2023-08-07T06:45:55;18.00;99.90
13721;DHT22;6932;51.438;5.470;2023-08-07T06:48:22;18.10;99.90
13721;DHT22;6932;51.438;5.470;2023-08-07T06:50:51;18.10;99.90
13721;DHT22;6932;51.438;5.470;2023-08-07T06:53:16;18.10;99.90
13721;DHT22;6932;51.438;5.470;2023-08-07T06:55:43;18.20;99.90
13721;DHT22;6932;51.438;5.470;2023-08-07T06:58:10;18.20;99.90
13721;DHT22;6932;51.438;5.470;2023-08-07T07:00:36;18.30;99.90
13721;DHT22;6932;51.438;5.470;2023-08-07T07:03:03;18.30;99.90
13721;DHT22;6932;51.438;5.470;2023-08-07T07:05:30;18.40;99.90
13721;DHT22;6932;51.438;5.470;2023-08-07T07:07:57;18.40;99.90
13721;DHT22;6932;51.438;5.470;2023-08-07T07:10:23;18.50;99.90
13721;DHT22;6932;51.438;5.470;2023-08-07T07:12:49;18.50;99.90
13721;DHT22;6932;51.438;5.470;2023-08-07T07:15:15;18.50;99.90
13721;DHT22;6932;51.438;5.470;2023-08-07T07:17:41;18.60;99.90
13721;DHT22;6932;51.438;5.470;2023-08-07T07:20:07;18.60;99.90
13721;DHT22;6932;51.438;5.470;2023-08-07T07:22:35;18.70;99.90
13721;DHT22;6932;51.438;5.470;2023-08-07T07:25:01;18.80;99.90
13721;DHT22;6932;51.438;5.470;2023-08-07T07:27:27;18.90;99.90
13721;DHT22;6932;51.438;5.470;2023-08-07T07:29:53;19.10;99.90
13721;DHT22;6932;51.438;5.470;2023-08-07T07:32:18;19.30;99.90
13721;DHT22;6932;51.438;5.470;2023-08-07T07:34:44;19.50;99.90
13721;DHT22;6932;51.438;5.470;2023-08-07T07:37:10;19.70;99.90
13721;DHT22;6932;51.438;5.470;2023-08-07T07:39:36;19.80;99.90
13721;DHT22;6932;51.438;5.470;2023-08-07T07:42:02;19.90;99.90
13721;DHT22;6932;51.438;5.470;2023-08-07T07:44:30;19.90;99.90
13721;DHT22;6932;51.438;5.470;2023-08-07T07:46:56;19.90;99.90
13721;DHT22;6932;51.438;5.470;2023-08-07T07:49:22;19.90;99.90
13721;DHT22;6932;51.438;5.470;2023-08-07T07:51:48;19.90;99.90
13721;DHT22;6932;51.438;5.470;2023-08-07T07:54:14;19.90;99.90
13721;DHT22;6932;51.438;5.470;2023-08-07T07:56:41;19.80;99.90
13721;DHT22;6932;51.438;5.470;2023-08-07T07:59:07;19.80;99.90
13721;DHT22;6932;51.438;5.470;2023-08-07T08:01:33;19.80;99.90
13721;DHT22;6932;51.438;5.470;2023-08-07T08:03:59;19.80;99.90
13721;DHT22;6932;51.438;5.470;2023-08-07T08:06:25;19.80;99.90
13721;DHT22;6932;51.438;5.470;2023-08-07T08:08:50;19.90;99.90
13721;DHT22;6932;51.438;5.470;2023-08-07T08:11:16;20.00;99.90
13721;DHT22;6932;51.438;5.470;2023-08-07T08:13:42;20.10;99.90
13721;DHT22;6932;51.438;5.470;2023-08-07T08:16:07;20.10;99.90
13721;DHT22;6932;51.438;5.470;2023-08-07T08:18:33;20.20;99.90
13721;DHT22;6932;51.438;5.470;2023-08-07T08:20:59;20.30;99.90
13721;DHT22;6932;51.438;5.470;2023-08-07T08:23:24;20.40;99.90
13721;DHT22;6932;51.438;5.470;2023-08-07T08:25:50;20.50;99.90
13721;DHT22;6932;51.438;5.470;2023-08-07T08:28:17;20.70;99.90
13721;DHT22;6932;51.438;5.470;2023-08-07T08:30:43;20.80;99.90
13721;DHT22;6932;51.438;5.470;2023-08-07T08:33:08;21.00;99.90
13721;DHT22;6932;51.438;5.470;2023-08-07T08:35:37;21.20;99.90
13721;DHT22;6932;51.438;5.470;2023-08-07T08:38:04;21.40;99.90
13721;DHT22;6932;51.438;5.470;2023-08-07T08:40:30;21.60;99.90
13721;DHT22;6932;51.438;5.470;2023-08-07T08:43:00;21.70;99.90
13721;DHT22;6932;51.438;5.470;2023-08-07T08:45:27;21.90;99.90
13721;DHT22;6932;51.438;5.470;2023-08-07T08:48:00;22.00;99.90
13721;DHT22;6932;51.438;5.470;2023-08-07T08:50:28;22.00;99.90
13721;DHT22;6932;51.438;5.470;2023-08-07T08:52:56;22.10;99.90
13721;DHT22;6932;51.438;5.470;2023-08-07T08:55:22;22.10;99.90
13721;DHT22;6932;51.438;5.470;2023-08-07T08:57:49;22.00;99.90
13721;DHT22;6932;51.438;5.470;2023-08-07T09:00:16;22.00;99.90
13721;DHT22;6932;51.438;5.470;2023-08-07T09:02:48;22.00;99.90
13721;DHT22;6932;51.438;5.470;2023-08-07T09:05:15;22.00;99.90
13721;DHT22;6932;51.438;5.470;2023-08-07T09:07:42;22.10;99.80
13721;DHT22;6932;51.438;5.470;2023-08-07T09:10:10;22.20;99.50
13721;DHT22;6932;51.438;5.470;2023-08-07T09:12:47;22.30;99.20
13721;DHT22;6932;51.438;5.470;2023-08-07T09:15:19;22.40;98.60
13721;DHT22;6932;51.438;5.470;2023-08-07T09:17:45;22.50;98.30
13721;DHT22;6932;51.438;5.470;2023-08-07T09:20:12;22.60;98.30
13721;DHT22;6932;51.438;5.470;2023-08-07T09:22:40;22.50;97.70
13721;DHT22;6932;51.438;5.470;2023-08-07T09:25:06;22.60;97.90
13721;DHT22;6932;51.438;5.470;2023-08-07T09:27:36;22.50;97.50
13721;DHT22;6932;51.438;5.470;2023-08-07T09:30:05;22.50;97.80
13721;DHT22;6932;51.438;5.470;2023-08-07T09:32:33;22.50;97.70
13721;DHT22;6932;51.438;5.470;2023-08-07T09:35:02;22.40;97.10
13721;DHT22;6932;51.438;5.470;2023-08-07T09:37:30;22.30;96.60
13721;DHT22;6932;51.438;5.470;2023-08-07T09:39:56;22.40;97.00
13721;DHT22;6932;51.438;5.470;2023-08-07T09:42:22;22.40;97.10
13721;DHT22;6932;51.438;5.470;2023-08-07T09:44:48;22.50;97.20
13721;DHT22;6932;51.438;5.470;2023-08-07T09:47:18;22.60;97.10
13721;DHT22;6932;51.438;5.470;2023-08-07T09:49:45;22.70;98.20
13721;DHT22;6932;51.438;5.470;2023-08-07T09:52:14;22.80;96.60
13721;DHT22;6932;51.438;5.470;2023-08-07T09:54:41;22.90;97.20
13721;DHT22;6932;51.438;5.470;2023-08-07T09:57:07;23.00;96.80
13721;DHT22;6932;51.438;5.470;2023-08-07T09:59:34;23.10;96.50
13721;DHT22;6932;51.438;5.470;2023-08-07T10:02:01;23.20;96.40
13721;DHT22;6932;51.438;5.470;2023-08-07T10:04:29;23.30;96.00
13721;DHT22;6932;51.438;5.470;2023-08-07T10:06:56;23.30;95.90
13721;DHT22;6932;51.438;5.470;2023-08-07T10:09:22;23.40;95.50
13721;DHT22;6932;51.438;5.470;2023-08-07T10:11:51;23.30;95.00
13721;DHT22;6932;51.438;5.470;2023-08-07T10:14:18;23.30;94.30
13721;DHT22;6932;51.438;5.470;2023-08-07T10:16:45;23.20;94.20
13721;DHT22;6932;51.438;5.470;2023-08-07T10:19:11;23.20;94.40
13721;DHT22;6932;51.438;5.470;2023-08-07T10:21:41;23.20;94.50
13721;DHT22;6932;51.438;5.470;2023-08-07T10:24:09;23.20;94.10
13721;DHT22;6932;51.438;5.470;2023-08-07T10:26:39;23.20;94.20
13721;DHT22;6932;51.438;5.470;2023-08-07T10:29:11;23.30;93.20
13721;DHT22;6932;51.438;5.470;2023-08-07T10:31:40;23.30;93.50
13721;DHT22;6932;51.438;5.470;2023-08-07T10:34:08;23.40;93.80
13721;DHT22;6932;51.438;5.470;2023-08-07T10:36:36;23.50;93.10
13721;DHT22;6932;51.438;5.470;2023-08-07T10:39:08;23.60;93.00
13721;DHT22;6932;51.438;5.470;2023-08-07T10:41:41;23.60;93.20
13721;DHT22;6932;51.438;5.470;2023-08-07T10:46:55;23.80;92.50
13721;DHT22;6932;51.438;5.470;2023-08-07T10:49:42;23.80;92.10
13721;DHT22;6932;51.438;5.470;2023-08-07T10:52:12;23.80;92.30
13721;DHT22;6932;51.438;5.470;2023-08-07T10:54:46;23.80;92.30
13721;DHT22;6932;51.438;5.470;2023-08-07T10:57:15;23.80;91.80
13721;DHT22;6932;51.438;5.470;2023-08-07T11:00:01;23.70;92.10
13721;DHT22;6932;51.438;5.470;2023-08-07T11:02:31;23.60;92.00
13721;DHT22;6932;51.438;5.470;2023-08-07T11:05:02;23.60;91.60
13721;DHT22;6932;51.438;5.470;2023-08-07T11:07:30;23.50;91.60
13721;DHT22;6932;51.438;5.470;2023-08-07T11:09:57;23.50;91.80
13721;DHT22;6932;51.438;5.470;2023-08-07T11:12:28;23.60;91.90
13721;DHT22;6932;51.438;5.470;2023-08-07T11:14:58;23.60;91.70
13721;DHT22;6932;51.438;5.470;2023-08-07T11:17:25;23.70;91.50
13721;DHT22;6932;51.438;5.470;2023-08-07T11:19:53;23.80;91.40
13721;DHT22;6932;51.438;5.470;2023-08-07T11:22:20;23.90;91.40
13721;DHT22;6932;51.438;5.470;2023-08-07T11:24:46;24.00;91.60
13721;DHT22;6932;51.438;5.470;2023-08-07T11:27:12;24.00;91.50
13721;DHT22;6932;51.438;5.470;2023-08-07T11:29:39;24.00;91.00
13721;DHT22;6932;51.438;5.470;2023-08-07T11:32:05;24.00;91.30
13721;DHT22;6932;51.438;5.470;2023-08-07T11:34:31;23.90;91.30
13721;DHT22;6932;51.438;5.470;2023-08-07T11:36:57;23.80;91.80
13721;DHT22;6932;51.438;5.470;2023-08-07T11:39:24;23.80;91.40
13721;DHT22;6932;51.438;5.470;2023-08-07T11:41:53;23.70;92.00
13721;DHT22;6932;51.438;5.470;2023-08-07T11:44:19;23.70;92.10
13721;DHT22;6932;51.438;5.470;2023-08-07T11:46:45;23.80;92.50
13721;DHT22;6932;51.438;5.470;2023-08-07T11:49:12;23.70;92.60
13721;DHT22;6932;51.438;5.470;2023-08-07T11:51:38;23.80;92.90
13721;DHT22;6932;51.438;5.470;2023-08-07T11:54:04;23.70;92.50
13721;DHT22;6932;51.438;5.470;2023-08-07T11:56:30;23.70;92.50
13721;DHT22;6932;51.438;5.470;2023-08-07T11:58:57;23.70;92.30
13721;DHT22;6932;51.438;5.470;2023-08-07T12:01:25;23.60;92.80
13721;DHT22;6932;51.438;5.470;2023-08-07T12:06:34;23.50;92.80
13721;DHT22;6932;51.438;5.470;2023-08-07T12:09:01;23.50;92.90
13721;DHT22;6932;51.438;5.470;2023-08-07T12:11:31;23.50;93.30
13721;DHT22;6932;51.438;5.470;2023-08-07T12:13:59;23.50;93.50
13721;DHT22;6932;51.438;5.470;2023-08-07T12:16:33;23.50;93.60
13721;DHT22;6932;51.438;5.470;2023-08-07T12:19:00;23.50;93.90
13721;DHT22;6932;51.438;5.470;2023-08-07T12:21:27;23.50;94.20
13721;DHT22;6932;51.438;5.470;2023-08-07T12:23:56;23.50;94.90
13721;DHT22;6932;51.438;5.470;2023-08-07T12:26:23;23.50;95.40
13721;DHT22;6932;51.438;5.470;2023-08-07T12:28:49;23.50;96.50
13721;DHT22;6932;51.438;5.470;2023-08-07T12:31:15;23.50;97.90
13721;DHT22;6932;51.438;5.470;2023-08-07T12:33:42;23.40;98.10
13721;DHT22;6932;51.438;5.470;2023-08-07T12:36:08;23.30;98.60
13721;DHT22;6932;51.438;5.470;2023-08-07T12:38:35;23.10;99.20
13721;DHT22;6932;51.438;5.470;2023-08-07T12:41:01;23.00;99.80
13721;DHT22;6932;51.438;5.470;2023-08-07T12:43:28;22.90;99.80
13721;DHT22;6932;51.438;5.470;2023-08-07T12:45:54;22.80;99.40
13721;DHT22;6932;51.438;5.470;2023-08-07T12:48:20;22.80;99.20
13721;DHT22;6932;51.438;5.470;2023-08-07T12:50:46;22.80;99.00
13721;DHT22;6932;51.438;5.470;2023-08-07T12:53:11;22.90;98.10
13721;DHT22;6932;51.438;5.470;2023-08-07T12:55:37;22.90;98.30
13721;DHT22;6932;51.438;5.470;2023-08-07T12:58:03;23.00;98.90
13721;DHT22;6932;51.438;5.470;2023-08-07T13:00:28;23.00;98.80
13721;DHT22;6932;51.438;5.470;2023-08-07T13:02:54;23.00;99.30
13721;DHT22;6932;51.438;5.470;2023-08-07T13:05:22;22.90;98.70
13721;DHT22;6932;51.438;5.470;2023-08-07T13:07:48;22.80;99.10
13721;DHT22;6932;51.438;5.470;2023-08-07T13:10:16;22.70;98.80
13721;DHT22;6932;51.438;5.470;2023-08-07T13:12:43;22.70;98.80
13721;DHT22;6932;51.438;5.470;2023-08-07T13:15:13;22.50;99.50
13721;DHT22;6932;51.438;5.470;2023-08-07T13:17:41;22.50;99.90
13721;DHT22;6932;51.438;5.470;2023-08-07T13:20:09;22.40;99.90
13721;DHT22;6932;51.438;5.470;2023-08-07T13:22:36;22.30;99.90
13721;DHT22;6932;51.438;5.470;2023-08-07T13:25:03;22.30;99.90
13721;DHT22;6932;51.438;5.470;2023-08-07T13:27:33;22.40;99.90
13721;DHT22;6932;51.438;5.470;2023-08-07T13:30:01;22.30;99.90
13721;DHT22;6932;51.438;5.470;2023-08-07T13:32:28;22.30;99.90
13721;DHT22;6932;51.438;5.470;2023-08-07T13:34:55;22.30;99.90
13721;DHT22;6932;51.438;5.470;2023-08-07T13:37:21;22.30;99.90
13721;DHT22;6932;51.438;5.470;2023-08-07T13:39:47;22.30;99.90
13721;DHT22;6932;51.438;5.470;2023-08-07T13:42:15;22.30;99.70
13721;DHT22;6932;51.438;5.470;2023-08-07T13:44:41;22.40;99.40
13721;DHT22;6932;51.438;5.470;2023-08-07T13:47:06;22.40;99.50
13721;DHT22;6932;51.438;5.470;2023-08-07T13:49:32;22.40;99.40
13721;DHT22;6932;51.438;5.470;2023-08-07T13:51:59;22.40;99.30
13721;DHT22;6932;51.438;5.470;2023-08-07T13:54:25;22.40;99.60
13721;DHT22;6932;51.438;5.470;2023-08-07T13:56:50;22.50;99.80
13721;DHT22;6932;51.438;5.470;2023-08-07T13:59:16;22.50;99.80
13721;DHT22;6932;51.438;5.470;2023-08-07T14:01:42;22.60;99.40
13721;DHT22;6932;51.438;5.470;2023-08-07T14:04:08;22.60;99.60
13721;DHT22;6932;51.438;5.470;2023-08-07T14:06:34;22.70;99.40
13721;DHT22;6932;51.438;5.470;2023-08-07T14:09:00;22.70;98.90
13721;DHT22;6932;51.438;5.470;2023-08-07T14:11:25;22.80;98.90
13721;DHT22;6932;51.438;5.470;2023-08-07T14:13:59;22.80;98.60
13721;DHT22;6932;51.438;5.470;2023-08-07T14:16:27;22.90;97.80
13721;DHT22;6932;51.438;5.470;2023-08-07T14:18:53;22.90;97.50
13721;DHT22;6932;51.438;5.470;2023-08-07T14:21:19;23.00;97.20
13721;DHT22;6932;51.438;5.470;2023-08-07T14:23:46;23.00;97.00
13721;DHT22;6932;51.438;5.470;2023-08-07T14:26:13;23.00;97.20
13721;DHT22;6932;51.438;5.470;2023-08-07T14:28:38;23.00;97.10
13721;DHT22;6932;51.438;5.470;2023-08-07T14:31:08;23.10;97.00
13721;DHT22;6932;51.438;5.470;2023-08-07T14:33:35;23.10;97.00
13721;DHT22;6932;51.438;5.470;2023-08-07T14:36:01;23.10;97.90
13721;DHT22;6932;51.438;5.470;2023-08-07T14:38:28;23.00;98.30
13721;DHT22;6932;51.438;5.470;2023-08-07T14:40:54;23.00;98.80
13721;DHT22;6932;51.438;5.470;2023-08-07T14:43:21;22.90;98.80
13721;DHT22;6932;51.438;5.470;2023-08-07T14:45:48;22.80;98.90
13721;DHT22;6932;51.438;5.470;2023-08-07T14:48:16;22.80;99.00
13721;DHT22;6932;51.438;5.470;2023-08-07T14:50:42;22.80;98.60
13721;DHT22;6932;51.438;5.470;2023-08-07T14:53:08;22.90;98.70
13721;DHT22;6932;51.438;5.470;2023-08-07T14:55:33;22.80;98.60
13721;DHT22;6932;51.438;5.470;2023-08-07T14:57:59;22.80;98.40
13721;DHT22;6932;51.438;5.470;2023-08-07T15:00:25;22.90;98.50
13721;DHT22;6932;51.438;5.470;2023-08-07T15:02:51;22.90;97.20
13721;DHT22;6932;51.438;5.470;2023-08-07T15:05:16;23.00;96.90
13721;DHT22;6932;51.438;5.470;2023-08-07T15:07:42;23.00;96.80
13721;DHT22;6932;51.438;5.470;2023-08-07T15:10:08;23.00;96.50
13721;DHT22;6932;51.438;5.470;2023-08-07T15:12:34;23.10;96.30
13721;DHT22;6932;51.438;5.470;2023-08-07T15:15:00;23.10;96.10
13721;DHT22;6932;51.438;5.470;2023-08-07T15:17:27;23.10;95.10
13721;DHT22;6932;51.438;5.470;2023-08-07T15:19:52;23.20;94.60
13721;DHT22;6932;51.438;5.470;2023-08-07T15:22:18;23.20;94.40
13721;DHT22;6932;51.438;5.470;2023-08-07T15:24:44;23.30;93.90
13721;DHT22;6932;51.438;5.470;2023-08-07T15:27:09;23.30;94.30
13721;DHT22;6932;51.438;5.470;2023-08-07T15:29:37;23.30;94.30
13721;DHT22;6932;51.438;5.470;2023-08-07T15:32:07;23.30;94.50
13721;DHT22;6932;51.438;5.470;2023-08-07T15:34:33;23.20;94.40
13721;DHT22;6932;51.438;5.470;2023-08-07T15:36:58;23.20;94.30
13721;DHT22;6932;51.438;5.470;2023-08-07T15:39:24;23.20;94.40
13721;DHT22;6932;51.438;5.470;2023-08-07T15:41:50;23.10;94.60
13721;DHT22;6932;51.438;5.470;2023-08-07T15:44:16;23.10;95.00
13721;DHT22;6932;51.438;5.470;2023-08-07T15:46:41;23.00;95.40
13721;DHT22;6932;51.438;5.470;2023-08-07T15:49:07;23.10;95.60
13721;DHT22;6932;51.438;5.470;2023-08-07T15:51:33;23.00;95.60
13721;DHT22;6932;51.438;5.470;2023-08-07T15:53:58;23.00;95.80
13721;DHT22;6932;51.438;5.470;2023-08-07T15:56:24;23.00;96.00